Terminal Aerodrome Forecast
Issued by NWS North Platte, NE

Home | Current Version | Previous Version | Graphics & Text | Print | Product List | Glossary On
Versions: 1 2 3 4 5 6 7 8 9 10 11 12 13 14 15 16 17
000
FTUS43 KLBF 291722
TAFVTN
TAF
KVTN 291722Z 2918/3018 04013KT P6SM VCSH SCT009 BKN017 OVC024
      TEMPO 2919/2923 P6SM -RA BKN008 OVC015
     FM292300 06013KT P6SM -RA OVC008
     FM300600 04013KT 3SM -RA BR OVC003
     FM301200 03016G24KT 1SM -RASN BR VV003=

USA.gov is the U.S. government's official web portal to all federal, state and local government web resources and services.